createdAt,value
2022-10-22T00:08:11.983Z,100870.0
2022-10-22T00:18:11.986Z,100860.0
2022-10-22T00:28:36.652Z,100860.0
2022-10-22T00:38:11.991Z,100860.0
2022-10-22T00:48:11.995Z,100860.0
2022-10-22T00:58:12.003Z,100860.0
2022-10-22T01:18:36.670Z,100860.0
2022-10-22T01:28:12.013Z,100870.0
2022-10-22T01:38:12.013Z,100870.0
2022-10-22T01:48:36.678Z,100860.0
2022-10-22T01:58:12.014Z,100850.0
2022-10-22T02:08:12.015Z,100850.0
2022-10-22T02:18:12.023Z,100850.0
2022-10-22T02:38:12.044Z,100850.0
2022-10-22T02:58:12.031Z,100850.0
2022-10-22T03:18:12.045Z,100860.0
2022-10-22T03:28:12.047Z,100860.0
2022-10-22T03:38:12.044Z,100880.0
2022-10-22T03:58:12.054Z,100900.0
2022-10-22T04:08:12.072Z,100900.0
2022-10-22T04:18:12.061Z,100910.0
2022-10-22T04:28:12.065Z,100910.0
2022-10-22T04:38:36.743Z,100920.0
2022-10-22T04:48:36.741Z,100910.0
2022-10-22T04:58:12.089Z,100910.0
2022-10-22T05:08:36.799Z,100930.0
2022-10-22T05:18:12.076Z,100930.0
2022-10-22T05:28:36.751Z,100930.0
2022-10-22T05:38:12.094Z,100920.0
2022-10-22T05:48:12.097Z,100940.0
2022-10-22T05:58:12.102Z,100950.0
2022-10-22T06:08:16.749Z,100960.0
2022-10-22T06:48:12.121Z,101010.0
2022-10-22T07:08:12.153Z,101040.0
2022-10-22T07:18:12.126Z,101050.0
2022-10-22T07:28:12.131Z,101080.0
2022-10-22T07:38:12.146Z,101080.0
2022-10-22T07:48:12.143Z,101090.0
2022-10-22T07:58:12.158Z,101100.0
2022-10-22T08:08:12.173Z,101120.0
2022-10-22T08:18:12.154Z,101120.0
2022-10-22T08:48:12.182Z,101150.0
2022-10-22T08:58:12.182Z,101170.0
2022-10-22T09:08:12.180Z,101180.0
2022-10-22T09:18:12.186Z,101190.0
2022-10-22T09:28:12.190Z,101200.0
2022-10-22T09:38:36.861Z,101210.0
2022-10-22T09:48:12.197Z,101230.0
2022-10-22T09:58:12.195Z,101230.0
2022-10-22T10:18:12.233Z,101260.0
2022-10-22T10:28:12.217Z,101270.0
2022-10-22T10:58:12.221Z,101300.0
2022-10-22T11:08:12.229Z,101280.0
2022-10-22T11:18:12.238Z,101290.0
2022-10-22T11:28:12.277Z,101290.0
2022-10-22T11:38:12.249Z,101290.0
2022-10-22T11:48:12.261Z,101290.0
2022-10-22T11:58:12.253Z,101300.0
2022-10-22T12:08:14.945Z,101280.0
2022-10-22T12:28:12.273Z,101300.0
2022-10-22T12:38:12.278Z,101290.0
2022-10-22T12:48:12.283Z,101310.0
2022-10-22T12:58:12.283Z,101310.0
2022-10-22T13:08:12.379Z,101310.0
2022-10-22T13:18:12.288Z,101300.0
2022-10-22T13:28:12.292Z,101300.0
2022-10-22T13:38:12.303Z,101290.0
2022-10-22T13:48:12.306Z,101290.0
2022-10-22T13:58:12.356Z,101290.0
2022-10-22T14:08:12.312Z,101300.0
2022-10-22T14:18:12.327Z,101290.0
2022-10-22T14:28:12.330Z,101300.0
2022-10-22T14:38:12.332Z,101300.0
2022-10-22T14:48:12.372Z,101310.0
2022-10-22T14:58:12.332Z,101320.0
2022-10-22T15:08:12.345Z,101320.0
2022-10-22T15:18:12.339Z,101340.0
2022-10-22T15:28:12.344Z,101340.0
2022-10-22T15:38:12.344Z,101360.0
2022-10-22T15:48:14.798Z,101360.0
2022-10-22T15:58:12.351Z,101350.0
2022-10-22T16:08:12.357Z,101350.0
2022-10-22T16:18:12.355Z,101350.0
2022-10-22T16:28:12.358Z,101350.0
2022-10-22T16:38:12.365Z,101360.0
2022-10-22T16:48:12.362Z,101370.0
2022-10-22T17:08:12.363Z,101390.0
2022-10-22T17:18:12.373Z,101390.0
2022-10-22T17:28:12.384Z,101390.0
2022-10-22T17:48:12.380Z,101400.0
2022-10-22T17:58:12.379Z,101400.0
2022-10-22T18:08:12.391Z,101400.0
2022-10-22T18:18:12.396Z,101410.0
2022-10-22T18:28:12.392Z,101410.0
2022-10-22T18:38:12.383Z,101420.0
2022-10-22T18:48:12.395Z,101430.0
2022-10-22T18:58:12.394Z,101430.0
2022-10-22T19:18:12.404Z,101410.0
2022-10-22T19:28:12.405Z,101390.0
2022-10-22T19:38:37.078Z,101400.0
2022-10-22T19:48:12.411Z,101400.0
2022-10-22T19:58:12.407Z,101390.0
2022-10-22T20:08:12.418Z,101380.0
2022-10-22T20:18:12.428Z,101400.0
2022-10-22T20:28:37.090Z,101410.0
2022-10-22T20:48:12.426Z,101410.0
2022-10-22T20:58:12.430Z,101420.0
2022-10-22T21:08:12.430Z,101420.0
2022-10-22T21:18:12.438Z,101420.0
2022-10-22T21:38:12.443Z,101410.0
2022-10-22T21:48:12.449Z,101410.0
2022-10-22T21:58:12.449Z,101400.0
2022-10-22T22:08:12.664Z,101420.0
2022-10-22T22:18:12.467Z,101410.0
2022-10-22T22:38:12.466Z,101400.0
2022-10-22T22:48:12.462Z,101400.0
2022-10-22T22:58:12.470Z,101380.0
2022-10-22T23:08:12.469Z,101380.0
2022-10-22T23:18:12.479Z,101360.0
2022-10-22T23:28:12.484Z,101360.0
2022-10-22T23:38:12.485Z,101370.0
2022-10-22T23:58:12.490Z,101360.0
